Weir, Mississippi
Current Conditions -  °F | °C
As of 10:15 PM on Tuesday 25 Nov 2014 (Local Time) from KSTF Reporting Station
NA  
Wind Chill: 32°   Ceiling: NA
Heat Index: 32°   Visibility: NA
Dew Point: 30°   Wind: 0mph
Humidity: 93%   Direction: NA
Pressure: 30.2"   Gusts: NA
Location:  33.27°N, 89.29°W
Report Text: KSTF 260415Z AUTO 00000KT 00/M01 A3020 RMK AO2 PWINO
Loading
Personal Weather Stations






























Interactive Weather Map New forecast layout! Learn more

10-Day Weather Forecast

Advertisements
Track Severe Weather on mobile